createdAt,value
2022-08-12T00:00:39.240Z,64.72
2022-08-12T00:02:03.889Z,64.52
2022-08-12T00:02:39.585Z,64.42
2022-08-12T00:03:39.316Z,64.42
2022-08-12T00:04:39.207Z,64.32
2022-08-12T00:05:39.213Z,64.59
2022-08-12T00:06:39.192Z,64.09
2022-08-12T00:07:39.168Z,63.79
2022-08-12T00:08:39.163Z,63.68
2022-08-12T00:09:39.130Z,63.59
2022-08-12T00:10:39.109Z,63.79
2022-08-12T00:11:39.127Z,63.99
2022-08-12T00:12:39.206Z,64.22
2022-08-12T00:13:39.097Z,64.72
2022-08-12T00:14:39.069Z,65.36
2022-08-12T00:15:39.039Z,66.09
2022-08-12T00:16:39.081Z,66.73
2022-08-12T00:17:39.036Z,67.47
2022-08-12T00:18:39.005Z,67.97
2022-08-12T00:19:38.983Z,68.61
2022-08-12T00:20:38.973Z,69.11
2022-08-12T00:21:38.989Z,69.31
2022-08-12T00:22:39.401Z,68.77
2022-08-12T00:23:38.944Z,68.07
2022-08-12T00:24:38.924Z,68.04
2022-08-12T00:26:00.456Z,67.30
2022-08-12T00:26:38.943Z,66.77
2022-08-12T00:27:44.008Z,66.36
2022-08-12T00:28:38.915Z,65.53
2022-08-12T00:29:38.853Z,64.89
2022-08-12T00:30:38.842Z,64.29
2022-08-12T00:31:38.829Z,63.65
2022-08-12T00:32:38.819Z,63.65
2022-08-12T00:33:52.471Z,63.99
2022-08-12T00:34:38.801Z,63.89
2022-08-12T00:35:38.793Z,63.89
2022-08-12T00:36:38.764Z,63.79
2022-08-12T00:37:38.743Z,63.18
2022-08-12T00:38:38.755Z,63.68
2022-08-12T00:39:39.703Z,63.62
2022-08-12T00:40:38.701Z,63.42
2022-08-12T00:41:38.698Z,63.21
2022-08-12T00:42:38.928Z,62.27
2022-08-12T00:43:38.680Z,61.87
2022-08-12T00:44:38.687Z,61.24
2022-08-12T00:45:38.648Z,61.34
2022-08-12T00:46:38.634Z,60.84
2022-08-12T00:47:38.614Z,61.74
2022-08-12T00:48:38.621Z,60.84
2022-08-12T00:49:38.624Z,60.94
2022-08-12T00:50:38.585Z,60.74
2022-08-12T00:51:38.585Z,59.33
2022-08-12T00:52:38.810Z,59.53
2022-08-12T00:53:38.538Z,58.73
2022-08-12T00:54:38.518Z,59.03
2022-08-12T00:55:38.519Z,58.93
2022-08-12T00:56:38.486Z,58.93
2022-08-12T00:57:38.486Z,58.86
2022-08-12T00:58:38.463Z,59.06
2022-08-12T00:59:38.450Z,59.08
2022-08-12T01:00:38.423Z,58.98
2022-08-12T01:02:10.726Z,59.28
2022-08-12T01:02:38.616Z,58.91
2022-08-12T01:03:38.399Z,58.51
2022-08-12T01:04:38.376Z,58.61
2022-08-12T01:05:38.370Z,58.41
2022-08-12T01:06:38.374Z,58.41
2022-08-12T01:07:38.355Z,58.41
2022-08-12T01:08:38.357Z,58.51
2022-08-12T01:09:38.314Z,58.31
2022-08-12T01:10:38.309Z,58.21
2022-08-12T01:11:38.298Z,58.41
2022-08-12T01:12:38.495Z,58.31
2022-08-12T01:13:38.262Z,58.01
2022-08-12T01:14:38.258Z,57.78
2022-08-12T01:15:38.244Z,57.37
2022-08-12T01:16:38.250Z,57.17
2022-08-12T01:17:38.205Z,56.84
2022-08-12T01:18:38.198Z,56.34
2022-08-12T01:19:38.166Z,55.83
2022-08-12T01:20:38.170Z,55.43
2022-08-12T01:21:38.172Z,55.51
2022-08-12T01:22:38.303Z,55.41
2022-08-12T01:23:38.138Z,55.33
2022-08-12T01:24:38.111Z,55.33
2022-08-12T01:25:55.807Z,55.13
2022-08-12T01:26:38.115Z,55.33
2022-08-12T01:27:38.073Z,55.23
2022-08-12T01:28:38.070Z,55.33
2022-08-12T01:29:38.042Z,55.33
2022-08-12T01:30:38.025Z,55.43
2022-08-12T01:31:38.050Z,55.43
2022-08-12T01:32:38.141Z,55.56
2022-08-12T01:33:37.993Z,55.56
2022-08-12T01:34:38.016Z,55.66
2022-08-12T01:35:37.951Z,55.36
2022-08-12T01:36:37.954Z,55.16
2022-08-12T01:37:37.954Z,55.16
2022-08-12T01:38:37.928Z,55.16
2022-08-12T01:39:38.011Z,55.16
2022-08-12T01:40:44.986Z,54.86
2022-08-12T01:41:37.884Z,54.96
2022-08-12T01:42:37.954Z,54.96
2022-08-12T01:43:37.871Z,54.75
2022-08-12T01:44:37.859Z,54.75
2022-08-12T01:45:43.315Z,54.86
2022-08-12T01:46:37.824Z,55.06
2022-08-12T01:47:37.807Z,54.75
2022-08-12T01:48:37.810Z,54.66
2022-08-12T01:49:37.768Z,54.86
2022-08-12T01:50:37.802Z,54.96
2022-08-12T01:52:20.496Z,55.06
2022-08-12T01:52:37.762Z,55.16
2022-08-12T01:53:48.641Z,55.56
2022-08-12T01:54:37.714Z,55.79
2022-08-12T01:55:37.716Z,55.79
2022-08-12T01:56:37.680Z,56.09
2022-08-12T01:57:58.827Z,56.70
2022-08-12T01:58:37.680Z,56.09
2022-08-12T01:59:37.630Z,56.29
2022-08-12T02:00:46.083Z,55.79
2022-08-12T02:01:37.706Z,55.26
2022-08-12T02:02:37.637Z,55.06
2022-08-12T02:03:37.585Z,55.16
2022-08-12T02:04:37.577Z,55.16
2022-08-12T02:05:37.556Z,55.46
2022-08-12T02:06:37.563Z,55.76
2022-08-12T02:07:37.541Z,55.96
2022-08-12T02:08:37.546Z,56.07
2022-08-12T02:09:37.505Z,56.37
2022-08-12T02:10:49.958Z,55.96
2022-08-12T02:11:37.474Z,55.66
2022-08-12T02:12:37.456Z,55.36
2022-08-12T02:13:48.571Z,55.36
2022-08-12T02:14:37.451Z,55.36
2022-08-12T02:15:37.442Z,55.36
2022-08-12T02:16:37.422Z,55.56
2022-08-12T02:17:55.968Z,55.46
2022-08-12T02:18:37.387Z,55.56
2022-08-12T02:19:37.398Z,55.46
2022-08-12T02:20:52.068Z,55.46
2022-08-12T02:21:37.339Z,54.96
2022-08-12T02:22:37.327Z,55.23
2022-08-12T02:23:37.313Z,55.43
2022-08-12T02:24:37.335Z,55.23
2022-08-12T02:25:37.310Z,55.43
2022-08-12T02:26:37.275Z,55.66
2022-08-12T02:27:37.309Z,55.87
2022-08-12T02:28:37.253Z,55.66
2022-08-12T02:29:37.243Z,55.74
2022-08-12T02:30:42.016Z,55.23
2022-08-12T02:31:37.214Z,55.23
2022-08-12T02:32:37.198Z,54.83
2022-08-12T02:33:37.208Z,54.73
2022-08-12T02:34:37.152Z,54.83
2022-08-12T02:35:37.147Z,55.13
2022-08-12T02:36:37.130Z,55.03
2022-08-12T02:37:37.120Z,56.14
2022-08-12T02:38:37.108Z,55.43
2022-08-12T02:39:37.221Z,55.94
2022-08-12T02:40:37.082Z,55.03
2022-08-12T02:41:37.079Z,55.13
2022-08-12T02:42:37.086Z,55.33
2022-08-12T02:43:37.071Z,55.54
2022-08-12T02:44:37.063Z,55.43
2022-08-12T02:45:37.003Z,55.23
2022-08-12T02:46:37.024Z,55.33
2022-08-12T02:47:57.133Z,55.03
2022-08-12T02:48:36.980Z,54.73
2022-08-12T02:49:36.989Z,54.93
2022-08-12T02:50:36.989Z,55.03
2022-08-12T02:51:36.929Z,54.73
2022-08-12T02:52:36.926Z,54.53
2022-08-12T02:53:36.930Z,54.83
2022-08-12T02:54:36.890Z,54.53
2022-08-12T02:55:36.919Z,54.63
2022-08-12T02:56:36.868Z,54.63
2022-08-12T02:57:36.857Z,55.03
2022-08-12T02:58:41.314Z,55.00
2022-08-12T02:59:36.846Z,54.60
2022-08-12T03:00:36.811Z,54.40
2022-08-12T03:01:47.767Z,55.13
2022-08-12T03:02:36.804Z,55.23
2022-08-12T03:03:36.766Z,55.43
2022-08-12T03:04:41.464Z,55.43
2022-08-12T03:05:38.532Z,55.54
2022-08-12T03:06:36.787Z,55.83
2022-08-12T03:07:59.200Z,56.04
2022-08-12T03:08:36.746Z,55.94
2022-08-12T03:09:52.391Z,55.83
2022-08-12T03:10:37.574Z,55.94
2022-08-12T03:11:41.653Z,55.83
2022-08-12T03:12:36.689Z,55.74
2022-08-12T03:13:36.642Z,56.37
2022-08-12T03:14:36.649Z,56.87
2022-08-12T03:15:36.641Z,56.97
2022-08-12T03:16:36.605Z,57.60
2022-08-12T03:17:36.603Z,58.41
2022-08-12T03:18:36.580Z,58.61
2022-08-12T03:19:36.564Z,59.01
2022-08-12T03:20:36.585Z,59.62
2022-08-12T03:21:55.658Z,59.72
2022-08-12T03:22:36.527Z,60.02
2022-08-12T03:23:36.503Z,60.42
2022-08-12T03:24:36.506Z,60.42
2022-08-12T03:25:36.464Z,60.22
2022-08-12T03:26:36.509Z,60.02
2022-08-12T03:27:36.457Z,59.82
2022-08-12T03:28:36.447Z,59.72
2022-08-12T03:29:42.990Z,59.72
2022-08-12T03:30:36.420Z,59.42
2022-08-12T03:31:36.404Z,59.31
2022-08-12T03:32:36.771Z,59.31
2022-08-12T03:33:36.359Z,58.91
2022-08-12T03:34:36.348Z,59.01
2022-08-12T03:35:40.255Z,58.71
2022-08-12T03:36:36.876Z,58.91
2022-08-12T03:37:36.330Z,58.71
2022-08-12T03:38:36.305Z,58.81
2022-08-12T03:39:37.219Z,58.71
2022-08-12T03:40:36.311Z,58.61
2022-08-12T03:41:36.331Z,58.81
2022-08-12T03:42:36.267Z,58.81
2022-08-12T03:43:36.266Z,59.01
2022-08-12T03:44:36.308Z,58.81
2022-08-12T03:45:50.114Z,59.11
2022-08-12T03:46:36.203Z,59.22
2022-08-12T03:47:36.189Z,59.31
2022-08-12T03:48:36.171Z,59.55
2022-08-12T03:49:36.218Z,59.75
2022-08-12T03:50:36.144Z,59.95
2022-08-12T03:51:36.114Z,60.25
2022-08-12T03:52:36.112Z,60.15
2022-08-12T03:53:36.095Z,60.15
2022-08-12T03:54:39.365Z,60.25
2022-08-12T03:55:36.089Z,60.15
2022-08-12T03:56:36.073Z,60.45
2022-08-12T03:57:36.051Z,60.65
2022-08-12T03:58:36.044Z,60.35
2022-08-12T03:59:36.039Z,60.75
2022-08-12T04:00:36.079Z,60.45
2022-08-12T04:01:40.691Z,60.55
2022-08-12T04:02:36.003Z,60.35
2022-08-12T04:03:35.950Z,60.45
2022-08-12T04:04:35.960Z,60.75
2022-08-12T04:05:55.799Z,60.85
2022-08-12T04:06:36.093Z,61.16
2022-08-12T04:07:35.897Z,61.18
2022-08-12T04:08:35.899Z,61.18
2022-08-12T04:09:35.876Z,61.59
2022-08-12T04:10:35.902Z,61.36
2022-08-12T04:11:35.847Z,61.56
2022-08-12T04:12:35.841Z,61.76
2022-08-12T04:13:35.830Z,61.66
2022-08-12T04:14:35.833Z,61.86
2022-08-12T04:15:35.802Z,61.76
2022-08-12T04:16:35.806Z,61.46
2022-08-12T04:17:35.792Z,61.46
2022-08-12T04:18:35.757Z,61.56
2022-08-12T04:19:35.754Z,61.56
2022-08-12T04:20:35.729Z,61.46
2022-08-12T04:21:35.723Z,61.89
2022-08-12T04:22:35.769Z,61.89
2022-08-12T04:23:35.696Z,61.99
2022-08-12T04:24:36.050Z,62.09
2022-08-12T04:25:35.658Z,62.09
2022-08-12T04:26:35.641Z,62.12
2022-08-12T04:27:35.668Z,62.32
2022-08-12T04:28:35.603Z,62.43
2022-08-12T04:30:17.182Z,62.12
2022-08-12T04:30:37.993Z,62.12
2022-08-12T04:31:35.610Z,61.99
2022-08-12T04:32:37.698Z,62.09
2022-08-12T04:33:35.575Z,61.59
2022-08-12T04:34:35.554Z,61.79
2022-08-12T04:35:35.525Z,61.99
2022-08-12T04:36:35.501Z,61.89
2022-08-12T04:37:59.881Z,61.39
2022-08-12T04:38:35.516Z,61.69
2022-08-12T04:39:35.536Z,61.79
2022-08-12T04:40:35.459Z,62.19
2022-08-12T04:41:35.463Z,62.60
2022-08-12T04:42:35.479Z,62.60
2022-08-12T04:44:00.702Z,63.17
2022-08-12T04:44:35.420Z,62.66
2022-08-12T04:45:35.417Z,63.98
2022-08-12T04:46:35.377Z,63.67
2022-08-12T04:47:35.422Z,63.47
2022-08-12T04:48:35.371Z,65.39
2022-08-12T04:49:35.366Z,63.57
2022-08-12T04:50:36.856Z,62.57
2022-08-12T04:51:35.471Z,63.10
2022-08-12T04:52:35.829Z,63.40
2022-08-12T04:53:35.308Z,63.60
2022-08-12T04:54:35.300Z,62.29
2022-08-12T04:55:35.276Z,62.52
2022-08-12T04:56:35.837Z,62.32
2022-08-12T04:57:35.243Z,62.52
2022-08-12T04:58:35.212Z,62.63
2022-08-12T04:59:46.608Z,62.73
2022-08-12T05:00:35.209Z,63.06
2022-08-12T05:01:35.216Z,63.16
2022-08-12T05:02:35.292Z,62.93
2022-08-12T05:03:46.842Z,62.73
2022-08-12T05:04:35.152Z,62.63
2022-08-12T05:05:36.238Z,62.63
2022-08-12T05:06:35.110Z,62.63
2022-08-12T05:07:35.111Z,62.63
2022-08-12T05:08:35.091Z,62.73
2022-08-12T05:10:01.030Z,62.52
2022-08-12T05:10:35.807Z,62.52
2022-08-12T05:11:35.053Z,62.63
2022-08-12T05:12:35.135Z,62.63
2022-08-12T05:13:35.053Z,62.63
2022-08-12T05:14:37.611Z,62.63
2022-08-12T05:15:36.220Z,62.63
2022-08-12T05:16:36.094Z,62.63
2022-08-12T05:17:34.973Z,62.52
2022-08-12T05:18:35.077Z,62.52
2022-08-12T05:19:34.957Z,62.40
2022-08-12T05:20:34.925Z,62.40
2022-08-12T05:21:35.347Z,62.49
2022-08-12T05:22:37.194Z,62.29
2022-08-12T05:23:34.924Z,61.99
2022-08-12T05:24:34.901Z,61.89
2022-08-12T05:25:34.861Z,61.86
2022-08-12T05:26:34.878Z,61.96
2022-08-12T05:27:34.827Z,61.86
2022-08-12T05:28:34.804Z,61.86
2022-08-12T05:30:08.009Z,61.86
2022-08-12T05:30:34.809Z,61.96
2022-08-12T05:31:45.549Z,61.76
2022-08-12T05:32:34.766Z,61.43
2022-08-12T05:33:34.805Z,61.43
2022-08-12T05:34:34.736Z,61.03
2022-08-12T05:35:34.744Z,60.83
2022-08-12T05:36:34.712Z,61.10
2022-08-12T05:37:34.819Z,60.60
2022-08-12T05:38:34.675Z,60.39
2022-08-12T05:39:34.798Z,60.29
2022-08-12T05:40:34.656Z,60.36
2022-08-12T05:41:34.639Z,60.27
2022-08-12T05:42:34.868Z,59.76
2022-08-12T05:43:34.629Z,60.06
2022-08-12T05:44:34.643Z,59.86
2022-08-12T05:45:34.594Z,59.76
2022-08-12T05:46:34.575Z,59.74
2022-08-12T05:47:52.655Z,59.53
2022-08-12T05:48:34.573Z,59.53
2022-08-12T05:49:34.555Z,59.53
2022-08-12T05:50:34.548Z,59.63
2022-08-12T05:51:41.277Z,59.63
2022-08-12T05:52:34.491Z,59.23
2022-08-12T05:53:34.500Z,59.00
2022-08-12T05:54:56.272Z,59.20
2022-08-12T05:55:34.498Z,59.30
2022-08-12T05:56:34.449Z,59.10
2022-08-12T05:57:34.425Z,58.20
2022-08-12T05:58:34.419Z,58.40
2022-08-12T05:59:34.413Z,57.97
2022-08-12T06:00:34.421Z,57.87
2022-08-12T06:02:12.449Z,57.57
2022-08-12T06:02:34.371Z,57.37
2022-08-12T06:03:34.541Z,57.67
2022-08-12T06:04:34.350Z,57.26
2022-08-12T06:05:34.345Z,56.54
2022-08-12T06:06:38.978Z,56.63
2022-08-12T06:08:00.241Z,56.13
2022-08-12T06:08:34.297Z,56.63
2022-08-12T06:09:34.259Z,55.93
2022-08-12T06:10:34.316Z,55.60
2022-08-12T06:11:34.281Z,55.51
2022-08-12T06:12:34.230Z,55.51
2022-08-12T06:13:53.097Z,55.51
2022-08-12T06:14:34.211Z,55.40
2022-08-12T06:15:34.170Z,54.88
2022-08-12T06:16:34.159Z,54.17
2022-08-12T06:17:34.184Z,54.17
2022-08-12T06:18:34.169Z,54.38
2022-08-12T06:20:26.797Z,54.68
2022-08-12T06:20:34.624Z,53.87
2022-08-12T06:21:34.121Z,54.17
2022-08-12T06:22:34.117Z,53.45
2022-08-12T06:23:34.083Z,52.64
2022-08-12T06:24:34.059Z,52.44
2022-08-12T06:25:34.054Z,52.34
2022-08-12T06:26:34.052Z,52.55
2022-08-12T06:27:34.052Z,53.05
2022-08-12T06:28:34.047Z,52.42
2022-08-12T06:30:09.806Z,52.32
2022-08-12T06:30:37.909Z,52.01
2022-08-12T06:31:34.060Z,52.22
2022-08-12T06:32:34.597Z,52.22
2022-08-12T06:34:00.383Z,52.22
2022-08-12T06:35:25.182Z,52.22
2022-08-12T06:35:48.291Z,51.72
2022-08-12T06:36:33.944Z,52.12
2022-08-12T06:37:33.901Z,52.32
2022-08-12T06:38:33.903Z,51.82
2022-08-12T06:39:33.894Z,51.82
2022-08-12T06:40:33.860Z,52.42
2022-08-12T06:41:33.836Z,52.62
2022-08-12T06:42:33.865Z,52.92
2022-08-12T06:44:04.839Z,52.29
2022-08-12T06:44:33.824Z,52.09
2022-08-12T06:45:45.830Z,52.19
2022-08-12T06:46:33.801Z,52.29
2022-08-12T06:47:33.749Z,52.39
2022-08-12T06:48:33.749Z,52.39
2022-08-12T06:49:33.778Z,52.17
2022-08-12T06:50:36.873Z,52.57
2022-08-12T06:51:33.719Z,52.17
2022-08-12T06:52:33.720Z,52.17
2022-08-12T06:53:33.703Z,52.47
2022-08-12T06:54:33.676Z,51.97
2022-08-12T06:55:33.647Z,52.07
2022-08-12T06:57:02.994Z,52.44
2022-08-12T06:57:57.091Z,51.64
2022-08-12T06:58:33.655Z,51.34
2022-08-12T06:59:33.600Z,50.94
2022-08-12T07:00:33.688Z,51.25
2022-08-12T07:01:33.678Z,51.04
2022-08-12T07:02:36.868Z,51.04
2022-08-12T07:03:33.529Z,51.64
2022-08-12T07:04:36.889Z,51.34
2022-08-12T07:05:33.529Z,51.04
2022-08-12T07:06:33.497Z,50.74
2022-08-12T07:07:33.492Z,51.34
2022-08-12T07:08:33.466Z,51.14
2022-08-12T07:10:00.008Z,50.94
2022-08-12T07:10:33.453Z,50.32
2022-08-12T07:11:33.451Z,50.54
2022-08-12T07:12:33.491Z,50.52
2022-08-12T07:13:33.408Z,50.72
2022-08-12T07:14:36.436Z,50.82
2022-08-12T07:15:33.432Z,50.22
2022-08-12T07:16:33.376Z,49.72
2022-08-12T07:17:33.421Z,50.22
2022-08-12T07:18:33.372Z,50.72
2022-08-12T07:19:40.448Z,50.32
2022-08-12T07:20:51.648Z,50.62
2022-08-12T07:21:59.938Z,50.82
2022-08-12T07:22:33.330Z,50.12
2022-08-12T07:23:33.309Z,50.20
2022-08-12T07:24:33.266Z,50.49
2022-08-12T07:25:41.027Z,50.29
2022-08-12T07:26:33.278Z,49.77
2022-08-12T07:27:33.211Z,49.17
2022-08-12T07:28:33.196Z,49.07
2022-08-12T07:29:57.839Z,49.37
2022-08-12T07:30:33.213Z,49.87
2022-08-12T07:31:33.170Z,49.35
2022-08-12T07:32:33.152Z,49.05
2022-08-12T07:33:33.183Z,48.93
2022-08-12T07:34:33.119Z,48.93
2022-08-12T07:35:33.117Z,48.00
2022-08-12T07:36:33.117Z,48.00
2022-08-12T07:37:33.082Z,47.71
2022-08-12T07:38:33.071Z,47.80
2022-08-12T07:39:33.165Z,48.40
2022-08-12T07:40:33.049Z,48.08
2022-08-12T07:41:33.048Z,47.98
2022-08-12T07:42:33.025Z,47.26
2022-08-12T07:43:33.017Z,47.36
2022-08-12T07:44:33.000Z,47.36
2022-08-12T07:45:33.015Z,46.86
2022-08-12T07:46:32.996Z,46.96
2022-08-12T07:47:32.967Z,46.86
2022-08-12T07:48:32.928Z,46.46
2022-08-12T07:49:32.946Z,46.94
2022-08-12T07:50:32.971Z,46.73
2022-08-12T07:51:32.902Z,46.14
2022-08-12T07:52:32.967Z,46.44
2022-08-12T07:53:32.936Z,46.42
2022-08-12T07:54:32.900Z,46.72
2022-08-12T07:55:32.850Z,46.31
2022-08-12T07:56:33.315Z,46.30
2022-08-12T07:57:32.844Z,46.39
2022-08-12T07:58:32.809Z,45.20
2022-08-12T07:59:32.813Z,45.70
2022-08-12T08:00:32.775Z,45.20
2022-08-12T08:01:32.919Z,45.10
2022-08-12T08:02:32.781Z,46.20
2022-08-12T08:03:32.747Z,45.67
2022-08-12T08:04:32.742Z,45.78
2022-08-12T08:05:32.710Z,45.26
2022-08-12T08:06:32.752Z,44.78
2022-08-12T08:07:32.710Z,45.67
2022-08-12T08:08:32.688Z,44.85
2022-08-12T08:09:32.671Z,44.96
2022-08-12T08:10:32.661Z,44.56
2022-08-12T08:11:32.654Z,44.06
2022-08-12T08:12:32.634Z,44.96
2022-08-12T08:13:32.640Z,44.36
2022-08-12T08:14:32.651Z,44.06
2022-08-12T08:16:01.876Z,44.24
2022-08-12T08:16:32.590Z,43.94
2022-08-12T08:17:32.568Z,44.34
2022-08-12T08:18:32.578Z,44.24
2022-08-12T08:19:32.538Z,45.11
2022-08-12T08:20:32.514Z,43.23
2022-08-12T08:21:32.505Z,43.70
2022-08-12T08:22:40.386Z,43.40
2022-08-12T08:23:35.232Z,43.68
2022-08-12T08:24:32.475Z,42.49
2022-08-12T08:25:36.744Z,42.58
2022-08-12T08:26:32.422Z,42.11
2022-08-12T08:27:32.433Z,42.80
2022-08-12T08:28:32.461Z,43.10
2022-08-12T08:29:32.427Z,43.20
2022-08-12T08:30:32.384Z,43.30
2022-08-12T08:31:32.388Z,43.01
2022-08-12T08:32:32.356Z,43.01
2022-08-12T08:34:05.071Z,43.20
2022-08-12T08:34:53.960Z,43.08
2022-08-12T08:35:46.497Z,42.79
2022-08-12T08:36:32.328Z,42.79
2022-08-12T08:37:33.437Z,42.96
2022-08-12T08:38:35.050Z,42.27
2022-08-12T08:39:32.338Z,42.07
2022-08-12T08:40:32.261Z,41.95
2022-08-12T08:42:17.368Z,42.35
2022-08-12T08:42:32.467Z,42.45
2022-08-12T08:43:44.326Z,41.63
2022-08-12T08:44:32.232Z,41.44
2022-08-12T08:45:32.191Z,41.02
2022-08-12T08:46:32.194Z,41.12
2022-08-12T08:47:32.167Z,40.92
2022-08-12T08:48:32.171Z,41.39
2022-08-12T08:49:32.169Z,41.30
2022-08-12T08:50:32.162Z,41.49
2022-08-12T08:51:32.131Z,41.30
2022-08-12T08:52:38.873Z,41.39
2022-08-12T08:53:32.142Z,40.62
2022-08-12T08:54:32.107Z,41.02
2022-08-12T08:56:01.368Z,40.92
2022-08-12T08:56:32.056Z,40.82
2022-08-12T08:57:44.124Z,39.51
2022-08-12T08:58:32.086Z,40.60
2022-08-12T08:59:32.013Z,40.07
2022-08-12T09:00:32.043Z,38.76
2022-08-12T09:01:37.790Z,38.06
2022-08-12T09:02:32.121Z,37.16
2022-08-12T09:05:13.342Z,36.87
2022-08-12T09:05:25.372Z,36.57
2022-08-12T09:06:01.676Z,36.75
2022-08-12T09:28:49.702Z,36.44
2022-08-12T09:28:58.126Z,36.32
2022-08-12T09:30:10.221Z,36.42
2022-08-12T09:30:59.102Z,35.61
2022-08-12T09:32:07.378Z,35.41
2022-08-12T09:33:08.627Z,35.31
2022-08-12T09:34:26.054Z,34.72
2022-08-12T09:34:58.033Z,33.72
2022-08-12T09:36:02.993Z,34.01
2022-08-12T09:37:01.588Z,34.01
2022-08-12T09:38:01.038Z,33.84
2022-08-12T09:38:58.463Z,34.03
2022-08-12T09:40:04.631Z,34.12
2022-08-12T09:42:07.469Z,33.42
2022-08-12T09:42:38.777Z,33.53
2022-08-12T09:44:01.229Z,33.01
2022-08-12T09:45:03.609Z,33.41
2022-08-12T09:46:12.138Z,33.53
2022-08-12T09:46:57.918Z,33.34
2022-08-12T09:47:59.922Z,33.54
2022-08-12T09:48:57.850Z,33.64
2022-08-12T09:49:58.895Z,33.23
2022-08-12T09:51:00.035Z,33.23
2022-08-12T09:51:57.829Z,33.33
2022-08-12T09:53:03.870Z,33.13
2022-08-12T09:54:05.483Z,33.34
2022-08-12T09:55:02.308Z,33.64
2022-08-12T09:56:56.705Z,33.13
2022-08-12T09:58:46.494Z,33.13
2022-08-12T09:59:03.825Z,33.15
2022-08-12T09:59:08.696Z,33.25
2022-08-12T10:00:13.255Z,33.15
2022-08-12T10:01:14.970Z,33.33
2022-08-12T10:02:41.927Z,33.22
2022-08-12T10:03:08.690Z,33.70
2022-08-12T10:04:08.738Z,32.41
2022-08-12T10:05:09.371Z,31.32
2022-08-12T10:06:19.191Z,30.85
2022-08-12T10:07:22.497Z,31.16
2022-08-12T10:08:08.588Z,31.67
2022-08-12T10:09:08.697Z,32.16
2022-08-12T10:10:08.527Z,32.06
2022-08-12T10:11:08.542Z,32.24
2022-08-12T10:12:11.997Z,31.65
2022-08-12T10:13:10.116Z,31.95
2022-08-12T10:14:13.502Z,31.75
2022-08-12T10:15:08.477Z,31.67
2022-08-12T10:16:22.112Z,31.96
2022-08-12T10:17:09.279Z,32.75
2022-08-12T10:18:08.438Z,32.95
2022-08-12T10:19:17.085Z,32.14
2022-08-12T10:20:09.966Z,32.84
2022-08-12T10:21:08.413Z,32.42
2022-08-12T10:22:16.938Z,31.83
2022-08-12T10:23:08.373Z,31.92
2022-08-12T10:24:08.419Z,31.23
2022-08-12T10:25:17.197Z,31.72
2022-08-12T10:26:37.030Z,30.73
2022-08-12T10:27:08.345Z,31.54
2022-08-12T10:28:13.791Z,32.13
2022-08-12T10:30:01.703Z,31.63
2022-08-12T10:30:44.108Z,31.72
2022-08-12T10:31:16.298Z,31.42
2022-08-12T10:32:20.728Z,31.82
2022-08-12T10:33:18.669Z,31.92
2022-08-12T10:34:14.956Z,32.49
2022-08-12T10:35:08.229Z,31.51
2022-08-12T10:36:08.193Z,31.51
2022-08-12T10:37:10.700Z,31.42
2022-08-12T10:38:39.226Z,31.62
2022-08-12T10:40:00.759Z,31.21
2022-08-12T10:40:12.580Z,30.91
2022-08-12T10:41:08.198Z,30.54
2022-08-12T10:42:08.195Z,31.13
2022-08-12T10:43:08.182Z,30.93
2022-08-12T10:44:08.094Z,30.83
2022-08-12T10:45:08.089Z,31.52
2022-08-12T10:46:12.183Z,30.85
2022-08-12T10:47:26.465Z,31.44
2022-08-12T10:48:21.905Z,31.04
2022-08-12T10:50:03.521Z,30.85
2022-08-12T10:50:58.435Z,30.94
2022-08-12T10:52:02.730Z,31.24
2022-08-12T10:52:34.758Z,31.63
2022-08-12T10:53:09.311Z,31.83
2022-08-12T10:54:08.001Z,31.04
2022-08-12T10:55:13.482Z,31.54
2022-08-12T10:56:07.943Z,31.62
2022-08-12T10:57:07.916Z,31.21
2022-08-12T10:58:14.539Z,30.72
2022-08-12T10:59:11.111Z,30.91
2022-08-12T11:00:30.649Z,31.41
2022-08-12T11:01:49.540Z,31.88
2022-08-12T11:04:45.272Z,30.88
2022-08-12T11:04:54.510Z,30.38
2022-08-12T11:07:03.760Z,30.47
2022-08-12T11:08:42.234Z,31.07
2022-08-12T11:08:48.436Z,31.36
2022-08-12T11:09:56.198Z,31.16
2022-08-12T11:10:47.462Z,31.57
2022-08-12T11:12:34.793Z,31.48
2022-08-12T11:13:00.558Z,31.39
2022-08-12T11:13:48.919Z,32.18
2022-08-12T11:14:50.631Z,31.88
2022-08-12T11:16:03.883Z,32.08
2022-08-12T11:16:47.532Z,32.08
2022-08-12T11:17:53.641Z,32.18
2022-08-12T11:18:47.345Z,32.48
2022-08-12T11:19:47.359Z,32.38
2022-08-12T11:20:47.318Z,32.07
2022-08-12T11:21:58.009Z,30.87
2022-08-12T11:22:58.139Z,30.47
2022-08-12T11:23:53.318Z,29.87
2022-08-12T11:24:51.556Z,29.87
2022-08-12T11:25:58.283Z,29.89
2022-08-12T11:26:47.307Z,30.17
2022-08-12T11:27:47.229Z,30.66
2022-08-12T11:28:59.088Z,31.26
2022-08-12T11:30:03.785Z,30.79
2022-08-12T11:30:47.252Z,29.71
2022-08-12T11:32:01.782Z,29.80
2022-08-12T11:32:47.280Z,30.19
2022-08-12T11:34:04.820Z,30.40
2022-08-12T11:34:53.365Z,30.19
2022-08-12T11:35:47.134Z,31.36
2022-08-12T11:36:47.114Z,30.97
2022-08-12T11:37:59.109Z,31.16
2022-08-12T11:38:50.306Z,31.67
2022-08-12T11:40:47.154Z,31.87
2022-08-12T11:41:47.062Z,31.10
2022-08-12T11:42:47.336Z,32.00
2022-08-12T11:43:50.183Z,32.79
2022-08-12T11:44:46.995Z,32.20
2022-08-12T11:45:47.433Z,32.59
2022-08-12T11:46:47.000Z,32.67
2022-08-12T11:47:46.948Z,32.87
2022-08-12T11:48:51.512Z,32.56
2022-08-12T11:49:51.948Z,31.56
2022-08-12T11:50:46.937Z,31.36
2022-08-12T11:51:57.900Z,32.15
2022-08-12T11:52:56.432Z,31.26
2022-08-12T11:53:57.263Z,31.16
2022-08-12T11:54:51.091Z,31.15
2022-08-12T11:55:47.066Z,30.95
2022-08-12T11:56:52.361Z,30.46
2022-08-12T11:58:44.108Z,30.85
2022-08-12T12:02:02.529Z,30.69
2022-08-12T12:02:38.234Z,31.10
2022-08-12T12:03:46.309Z,31.28
2022-08-12T12:04:38.159Z,31.49
2022-08-12T12:05:41.604Z,31.79
2022-08-12T12:06:38.153Z,31.29
2022-08-12T12:08:38.696Z,31.10
2022-08-12T12:08:51.049Z,31.59
2022-08-12T12:09:52.702Z,31.20
2022-08-12T12:10:38.093Z,31.39
2022-08-12T12:11:48.923Z,31.39
2022-08-12T12:12:38.073Z,31.10
2022-08-12T12:14:08.298Z,31.57
2022-08-12T12:14:39.223Z,31.56
2022-08-12T12:15:41.202Z,31.54
2022-08-12T12:16:39.991Z,30.95
2022-08-12T12:17:38.633Z,31.45
2022-08-12T12:18:37.976Z,31.05
2022-08-12T12:19:45.254Z,30.94
2022-08-12T12:20:37.948Z,29.96
2022-08-12T12:21:48.740Z,29.75
2022-08-12T12:22:37.943Z,29.96
2022-08-12T12:23:37.954Z,30.84
2022-08-12T12:24:37.894Z,30.05
2022-08-12T12:26:07.011Z,29.57
2022-08-12T12:26:38.526Z,29.76
2022-08-12T12:28:05.162Z,30.46
2022-08-12T12:28:39.468Z,29.77
2022-08-12T12:30:17.688Z,30.27
2022-08-12T12:30:37.823Z,29.79
2022-08-12T12:32:09.414Z,30.18
2022-08-12T12:32:37.813Z,30.87
2022-08-12T12:33:57.281Z,31.18
2022-08-12T12:34:37.776Z,31.07
2022-08-12T12:36:20.011Z,30.85
2022-08-12T12:36:37.787Z,30.17
2022-08-12T12:38:03.615Z,30.95
2022-08-12T12:38:37.713Z,30.46
2022-08-12T12:39:54.666Z,30.66
2022-08-12T12:40:39.785Z,30.07
2022-08-12T12:42:42.785Z,29.68
2022-08-12T12:42:55.609Z,29.87
2022-08-12T12:43:43.577Z,29.58
2022-08-12T12:44:41.870Z,30.08
2022-08-12T12:45:37.646Z,30.77
2022-08-12T12:46:37.632Z,30.66
2022-08-12T12:47:37.591Z,29.49
2022-08-12T12:48:41.400Z,30.30
2022-08-12T12:49:37.594Z,30.41
2022-08-12T12:50:45.497Z,30.51
2022-08-12T12:52:01.993Z,30.80
2022-08-12T12:52:37.631Z,30.43
2022-08-12T12:54:07.452Z,30.91
2022-08-12T12:54:37.508Z,31.60
2022-08-12T12:55:37.504Z,31.29
2022-08-12T12:56:37.482Z,30.59
2022-08-12T12:58:00.545Z,30.79
2022-08-12T12:58:37.481Z,30.28
2022-08-12T12:59:56.280Z,29.59
2022-08-12T13:00:37.450Z,29.80
2022-08-12T13:01:41.816Z,30.40
2022-08-12T13:02:37.407Z,30.98
2022-08-12T13:03:49.305Z,31.16
2022-08-12T13:04:37.868Z,30.95
2022-08-12T13:05:42.572Z,30.35
2022-08-12T13:06:37.367Z,30.25
2022-08-12T13:07:54.115Z,30.15
2022-08-12T13:08:37.349Z,29.47
2022-08-12T13:09:37.337Z,29.96
2022-08-12T13:10:37.382Z,28.99
2022-08-12T13:11:41.535Z,29.79
2022-08-12T13:12:37.520Z,29.90
2022-08-12T13:14:06.850Z,30.38
2022-08-12T13:14:39.861Z,29.79
2022-08-12T13:15:43.105Z,30.17
2022-08-12T13:16:37.244Z,29.96
2022-08-12T13:18:02.607Z,28.97
2022-08-12T13:18:37.204Z,29.16
2022-08-12T13:19:45.162Z,28.96
2022-08-12T13:20:43.126Z,29.75
2022-08-12T13:21:43.039Z,28.85